createdAt,value
2022-12-06T00:01:31.396Z,4.62
2022-12-06T00:04:02.233Z,4.65
2022-12-06T00:06:34.138Z,4.70
2022-12-06T00:09:02.617Z,4.58
2022-12-06T00:11:32.355Z,4.59
2022-12-06T00:14:02.613Z,4.49
2022-12-06T00:16:31.630Z,4.52
2022-12-06T00:19:00.199Z,4.50
2022-12-06T00:21:30.394Z,4.46
2022-12-06T00:24:03.853Z,4.47
2022-12-06T00:26:36.837Z,4.37
2022-12-06T00:29:06.135Z,4.36
2022-12-06T00:31:35.745Z,4.34
2022-12-06T00:34:04.236Z,4.36
2022-12-06T00:36:34.242Z,4.34
2022-12-06T00:39:06.446Z,4.38
2022-12-06T00:41:34.859Z,4.38
2022-12-06T00:44:02.901Z,4.41
2022-12-06T00:46:33.192Z,4.33
2022-12-06T00:49:02.671Z,4.31
2022-12-06T00:51:32.921Z,4.29
2022-12-06T00:54:01.195Z,4.36
2022-12-06T00:56:31.506Z,4.35
2022-12-06T00:58:59.826Z,4.38
2022-12-06T01:01:29.979Z,4.47
2022-12-06T01:04:01.473Z,4.49
2022-12-06T01:06:32.907Z,4.47
2022-12-06T01:09:04.093Z,4.43
2022-12-06T01:11:33.353Z,4.47
2022-12-06T01:14:01.662Z,4.47
2022-12-06T01:16:31.573Z,4.48
2022-12-06T01:19:01.140Z,4.42
2022-12-06T01:21:30.676Z,4.41
2022-12-06T01:23:58.852Z,4.37
2022-12-06T01:26:28.025Z,4.40
2022-12-06T01:28:58.845Z,4.41
2022-12-06T01:31:33.645Z,4.35
2022-12-06T01:34:03.748Z,4.34
2022-12-06T01:36:31.738Z,4.34
2022-12-06T01:39:02.331Z,4.32
2022-12-06T01:41:38.243Z,4.33
2022-12-06T01:44:08.302Z,4.36
2022-12-06T01:46:41.278Z,4.32
2022-12-06T01:49:17.340Z,4.29
2022-12-06T01:51:50.868Z,4.28
2022-12-06T01:54:26.522Z,4.17
2022-12-06T01:56:57.340Z,4.29
2022-12-06T01:59:28.528Z,4.24
2022-12-06T02:01:58.261Z,4.25
2022-12-06T02:04:26.700Z,4.25
2022-12-06T02:06:57.064Z,4.28
2022-12-06T02:09:27.988Z,4.28
2022-12-06T02:11:55.814Z,4.28
2022-12-06T02:14:27.808Z,4.26
2022-12-06T02:17:10.275Z,4.23
2022-12-06T02:19:59.438Z,4.22
2022-12-06T02:22:35.711Z,4.24
2022-12-06T02:25:39.487Z,4.21
2022-12-06T02:28:35.775Z,4.20
2022-12-06T02:31:12.265Z,4.23
2022-12-06T02:33:45.967Z,4.18
2022-12-06T02:36:21.762Z,4.17
2022-12-06T02:38:53.206Z,4.20
2022-12-06T02:41:25.851Z,4.17
2022-12-06T02:43:59.415Z,4.10
2022-12-06T02:46:32.796Z,4.16
2022-12-06T02:49:03.598Z,4.01
2022-12-06T02:51:34.066Z,4.09
2022-12-06T02:54:06.742Z,4.04
2022-12-06T02:56:35.893Z,4.04
2022-12-06T02:59:03.822Z,4.05
2022-12-06T03:01:35.722Z,3.97
2022-12-06T03:04:31.540Z,3.98
2022-12-06T03:07:14.354Z,4.05
2022-12-06T03:09:53.695Z,3.97
2022-12-06T03:12:31.061Z,4.02
2022-12-06T03:15:10.004Z,4.04
2022-12-06T03:17:45.170Z,4.09
2022-12-06T03:20:20.635Z,3.98
2022-12-06T03:22:53.191Z,3.93
2022-12-06T03:25:21.815Z,3.89
2022-12-06T03:27:51.207Z,3.98
2022-12-06T03:30:19.483Z,4.00
2022-12-06T03:32:51.796Z,3.97
2022-12-06T03:35:24.860Z,3.99
2022-12-06T03:37:58.492Z,3.96
2022-12-06T03:40:30.140Z,3.88
2022-12-06T03:42:59.109Z,3.79
2022-12-06T03:45:36.411Z,3.77
2022-12-06T03:48:11.319Z,3.78
2022-12-06T03:50:42.718Z,3.81
2022-12-06T03:53:11.163Z,3.75
2022-12-06T03:55:39.342Z,3.78
2022-12-06T03:58:07.327Z,3.75
2022-12-06T04:00:35.383Z,3.72
2022-12-06T04:03:03.240Z,3.64
2022-12-06T04:05:32.655Z,3.62
2022-12-06T04:08:01.567Z,3.60
2022-12-06T04:10:31.491Z,3.51
2022-12-06T04:13:02.421Z,3.44
2022-12-06T04:15:33.111Z,3.28
2022-12-06T04:18:14.121Z,3.05
2022-12-06T04:21:17.948Z,2.82
2022-12-06T04:23:48.995Z,2.81
2022-12-06T04:26:20.990Z,2.53
2022-12-06T04:29:09.050Z,2.32
2022-12-06T04:31:54.621Z,2.44
2022-12-06T04:34:40.069Z,2.33
2022-12-06T04:37:28.053Z,2.36
2022-12-06T04:39:57.924Z,2.37
2022-12-06T04:42:43.552Z,2.44
2022-12-06T04:45:12.665Z,2.36
2022-12-06T04:47:40.835Z,2.31
2022-12-06T04:50:09.297Z,2.31
2022-12-06T04:52:38.710Z,2.31
2022-12-06T04:55:06.781Z,2.31
2022-12-06T04:57:34.655Z,2.32
2022-12-06T05:00:02.913Z,2.49
2022-12-06T05:02:30.999Z,2.55
2022-12-06T05:04:58.870Z,2.61
2022-12-06T05:07:26.703Z,2.66
2022-12-06T05:09:56.162Z,2.74
2022-12-06T05:12:24.084Z,2.77
2022-12-06T05:14:52.135Z,2.77
2022-12-06T05:17:20.023Z,2.75
2022-12-06T05:19:47.973Z,2.62
2022-12-06T05:22:15.934Z,2.59
2022-12-06T05:24:43.935Z,2.35
2022-12-06T05:27:13.200Z,2.40
2022-12-06T05:29:42.291Z,2.38
2022-12-06T05:32:10.061Z,2.43
2022-12-06T05:34:37.877Z,2.43
2022-12-06T05:37:06.478Z,2.30
2022-12-06T05:39:34.307Z,2.43
2022-12-06T05:42:02.772Z,2.41
2022-12-06T05:44:32.018Z,2.38
2022-12-06T05:46:59.907Z,2.49
2022-12-06T05:49:27.921Z,2.47
2022-12-06T05:51:59.924Z,2.43
2022-12-06T05:54:30.587Z,2.45
2022-12-06T05:56:58.434Z,2.40
2022-12-06T05:59:27.217Z,2.42
2022-12-06T06:01:56.457Z,2.35
2022-12-06T06:04:24.460Z,2.40
2022-12-06T06:06:52.443Z,2.59
2022-12-06T06:09:20.409Z,2.57
2022-12-06T06:11:48.240Z,2.59
2022-12-06T06:14:16.127Z,2.58
2022-12-06T06:16:44.079Z,2.58
2022-12-06T06:19:13.559Z,2.57
2022-12-06T06:21:41.668Z,2.59
2022-12-06T06:24:09.710Z,2.53
2022-12-06T06:26:37.811Z,2.53
2022-12-06T06:29:05.677Z,2.45
2022-12-06T06:31:33.693Z,2.47
2022-12-06T06:34:01.705Z,2.32
2022-12-06T06:36:31.961Z,2.15
2022-12-06T06:38:59.906Z,1.94
2022-12-06T06:41:27.744Z,1.88
2022-12-06T06:43:55.671Z,2.03
2022-12-06T06:46:23.550Z,2.12
2022-12-06T06:48:52.945Z,2.27
2022-12-06T06:51:21.228Z,2.28
2022-12-06T06:53:50.614Z,2.34
2022-12-06T06:56:18.551Z,2.32
2022-12-06T06:58:47.142Z,2.28
2022-12-06T07:01:20.317Z,2.11
2022-12-06T07:03:48.257Z,2.05
2022-12-06T07:06:16.429Z,2.00
2022-12-06T07:08:44.398Z,1.88
2022-12-06T07:11:14.774Z,1.63
2022-12-06T07:13:52.524Z,1.34
2022-12-06T07:16:21.157Z,1.19
2022-12-06T07:18:49.218Z,1.23
2022-12-06T07:21:18.848Z,1.32
2022-12-06T07:23:49.979Z,1.09
2022-12-06T07:26:21.204Z,0.82
2022-12-06T07:28:50.771Z,0.94
2022-12-06T07:31:22.954Z,0.62
2022-12-06T07:33:54.886Z,0.37
2022-12-06T07:36:23.990Z,0.49
2022-12-06T07:38:53.465Z,0.39
2022-12-06T07:41:41.985Z,0.52
2022-12-06T07:44:32.677Z,0.52
2022-12-06T07:47:04.198Z,0.60
2022-12-06T07:49:36.714Z,0.73
2022-12-06T07:52:04.717Z,0.78
2022-12-06T07:54:32.767Z,0.80
2022-12-06T07:57:03.313Z,0.71
2022-12-06T07:59:31.455Z,0.96
2022-12-06T08:01:59.948Z,1.06
2022-12-06T08:05:29.905Z,1.29
2022-12-06T08:07:59.988Z,1.52
2022-12-06T08:10:37.995Z,1.64
2022-12-06T08:13:13.900Z,1.75
2022-12-06T08:16:05.216Z,1.70
2022-12-06T08:18:38.757Z,1.59
2022-12-06T08:21:07.461Z,1.50
2022-12-06T08:23:35.787Z,1.59
2022-12-06T08:26:06.568Z,1.64
2022-12-06T08:28:37.592Z,1.78
2022-12-06T08:31:07.975Z,1.98
2022-12-06T08:33:36.623Z,2.30
2022-12-06T08:36:24.538Z,2.53
2022-12-06T08:38:56.035Z,2.61
2022-12-06T08:41:47.452Z,2.66
2022-12-06T08:44:17.494Z,2.85
2022-12-06T08:46:45.539Z,2.96
2022-12-06T08:49:15.207Z,2.98
2022-12-06T08:51:49.657Z,2.94
2022-12-06T08:54:21.039Z,3.20
2022-12-06T08:56:49.093Z,3.37
2022-12-06T08:59:18.994Z,3.56
2022-12-06T09:01:47.523Z,3.32
2022-12-06T09:04:16.641Z,3.30
2022-12-06T09:06:47.417Z,3.30
2022-12-06T09:09:17.412Z,3.82
2022-12-06T09:11:46.931Z,4.68
2022-12-06T09:14:21.535Z,4.78
2022-12-06T09:16:53.682Z,5.26
2022-12-06T09:19:21.959Z,4.66
2022-12-06T09:21:49.911Z,4.70
2022-12-06T09:24:20.349Z,4.78
2022-12-06T09:26:50.907Z,4.50
2022-12-06T09:29:19.938Z,4.46
2022-12-06T09:31:48.123Z,4.26
2022-12-06T09:34:18.014Z,4.18
2022-12-06T09:36:49.124Z,4.19
2022-12-06T09:39:20.111Z,4.20
2022-12-06T09:42:17.945Z,4.11
2022-12-06T09:48:25.012Z,3.95
2022-12-06T09:51:09.408Z,3.95
2022-12-06T09:53:52.151Z,3.78
2022-12-06T09:56:27.469Z,3.67
2022-12-06T09:59:08.665Z,3.55
2022-12-06T10:01:52.998Z,3.47
2022-12-06T10:04:39.728Z,3.43
2022-12-06T10:07:16.703Z,3.36
2022-12-06T10:09:55.996Z,3.44
2022-12-06T10:12:39.317Z,3.54
2022-12-06T10:15:26.285Z,3.90
2022-12-06T10:18:11.254Z,4.77
2022-12-06T10:20:46.466Z,5.74
2022-12-06T10:23:38.578Z,5.71
2022-12-06T10:26:15.388Z,5.12
2022-12-06T10:28:46.901Z,5.02
2022-12-06T10:31:23.177Z,4.63
2022-12-06T10:33:58.482Z,4.53
2022-12-06T10:36:45.613Z,4.45
2022-12-06T10:39:22.993Z,4.65
2022-12-06T10:41:57.217Z,4.76
2022-12-06T10:44:34.587Z,4.99
2022-12-06T10:47:07.279Z,5.44
2022-12-06T10:49:48.564Z,5.24
2022-12-06T10:52:37.421Z,5.19
2022-12-06T10:55:27.872Z,5.29
2022-12-06T10:58:03.098Z,5.46
2022-12-06T11:00:45.226Z,5.49
2022-12-06T11:03:21.431Z,5.62
2022-12-06T11:05:59.768Z,5.66
2022-12-06T11:08:55.802Z,5.75
2022-12-06T11:11:32.918Z,5.55
2022-12-06T11:14:15.385Z,5.55
2022-12-06T11:17:05.124Z,5.29
2022-12-06T11:19:51.107Z,5.58
2022-12-06T11:22:35.119Z,6.03
2022-12-06T11:25:15.862Z,5.92
2022-12-06T11:27:50.703Z,5.92
2022-12-06T11:30:21.159Z,6.46
2022-12-06T11:32:52.407Z,6.50
2022-12-06T11:35:25.169Z,6.33
2022-12-06T11:38:01.028Z,6.12
2022-12-06T11:40:43.904Z,6.08
2022-12-06T11:43:19.498Z,5.99
2022-12-06T11:45:50.743Z,5.78
2022-12-06T11:48:23.275Z,5.69
2022-12-06T11:50:52.758Z,5.63
2022-12-06T11:53:25.466Z,5.72
2022-12-06T11:55:56.693Z,5.66
2022-12-06T11:58:31.941Z,5.48
2022-12-06T12:01:06.337Z,5.67
2022-12-06T12:03:36.385Z,5.76
2022-12-06T12:06:26.746Z,5.76
2022-12-06T12:09:01.631Z,5.86
2022-12-06T12:11:32.602Z,6.03
2022-12-06T12:14:06.138Z,5.98
2022-12-06T12:16:37.329Z,6.19
2022-12-06T12:19:19.383Z,5.86
2022-12-06T12:21:53.903Z,5.84
2022-12-06T12:27:47.311Z,7.14
2022-12-06T12:30:36.716Z,7.91
2022-12-06T12:33:18.611Z,8.20
2022-12-06T12:35:48.603Z,9.15
2022-12-06T12:38:35.169Z,9.08
2022-12-06T12:41:12.608Z,7.98
2022-12-06T12:43:41.191Z,7.63
2022-12-06T12:46:18.982Z,7.40
2022-12-06T12:48:51.886Z,7.26
2022-12-06T12:51:57.950Z,7.43
2022-12-06T12:54:30.826Z,6.96
2022-12-06T12:57:19.672Z,6.86
2022-12-06T12:59:47.775Z,6.83
2022-12-06T13:02:26.932Z,6.81
2022-12-06T13:05:24.889Z,6.74
2022-12-06T13:08:06.433Z,6.80
2022-12-06T13:10:40.610Z,6.69
2022-12-06T13:13:16.340Z,6.67
2022-12-06T13:15:48.247Z,6.42
2022-12-06T13:18:35.145Z,6.32
2022-12-06T13:21:18.669Z,6.26
2022-12-06T13:23:48.978Z,6.33
2022-12-06T13:26:25.734Z,6.52
2022-12-06T13:28:58.145Z,6.80
2022-12-06T13:31:31.327Z,7.72
2022-12-06T13:34:05.271Z,7.98
2022-12-06T13:36:34.626Z,7.99
2022-12-06T13:39:27.422Z,7.68
2022-12-06T13:42:16.192Z,7.51
2022-12-06T13:45:03.231Z,7.45
2022-12-06T13:47:51.502Z,6.87
2022-12-06T13:50:53.998Z,6.84
2022-12-06T13:53:25.376Z,6.80
2022-12-06T13:56:00.839Z,6.76
2022-12-06T13:58:50.979Z,6.63
2022-12-06T14:01:51.714Z,6.58
2022-12-06T14:04:37.971Z,6.36
2022-12-06T14:09:41.980Z,6.42
2022-12-06T14:12:20.768Z,6.21
2022-12-06T14:15:00.653Z,6.17
2022-12-06T14:20:31.912Z,6.00
2022-12-06T14:23:19.688Z,6.08
2022-12-06T14:25:47.670Z,5.90
2022-12-06T14:28:15.746Z,6.06
2022-12-06T14:30:44.597Z,6.06
2022-12-06T14:33:23.921Z,5.99
2022-12-06T14:35:53.545Z,6.01
2022-12-06T14:38:25.392Z,6.00
2022-12-06T14:41:11.743Z,6.02
2022-12-06T14:43:42.256Z,5.81
2022-12-06T14:46:14.434Z,5.95
2022-12-06T14:49:00.451Z,5.79
2022-12-06T14:51:36.281Z,5.92
2022-12-06T14:54:19.842Z,5.91
2022-12-06T14:56:49.231Z,5.71
2022-12-06T14:59:45.108Z,5.77
2022-12-06T15:02:22.600Z,5.86
2022-12-06T15:04:50.786Z,5.82
2022-12-06T15:07:33.599Z,5.73
2022-12-06T15:10:19.355Z,5.72
2022-12-06T15:12:59.823Z,5.74
2022-12-06T15:15:42.051Z,5.65
2022-12-06T15:18:27.062Z,5.47
2022-12-06T15:20:55.564Z,5.57
2022-12-06T15:23:31.085Z,5.63
2022-12-06T15:26:01.751Z,5.59
2022-12-06T15:28:29.743Z,5.54
2022-12-06T15:30:58.010Z,5.48
2022-12-06T15:33:27.829Z,5.46
2022-12-06T15:35:55.876Z,5.48
2022-12-06T15:38:23.728Z,5.50
2022-12-06T15:40:53.550Z,5.49
2022-12-06T15:43:28.980Z,5.48
2022-12-06T15:46:00.328Z,5.50
2022-12-06T15:48:28.887Z,5.44
2022-12-06T15:50:57.665Z,5.43
2022-12-06T15:53:27.371Z,5.31
2022-12-06T15:55:55.370Z,5.30
2022-12-06T15:58:26.240Z,5.16
2022-12-06T16:00:55.104Z,5.09
2022-12-06T16:03:23.197Z,5.02
2022-12-06T16:05:51.576Z,4.92
2022-12-06T16:08:19.524Z,5.10
2022-12-06T16:11:11.351Z,4.97
2022-12-06T16:13:36.890Z,5.11
2022-12-06T16:16:06.569Z,5.08
2022-12-06T16:18:34.843Z,5.01
2022-12-06T16:21:03.292Z,5.08
2022-12-06T16:24:12.420Z,5.12
2022-12-06T16:26:51.329Z,5.10
2022-12-06T16:29:25.035Z,5.07
2022-12-06T16:31:54.468Z,5.15
2022-12-06T16:34:22.629Z,5.19
2022-12-06T16:36:59.536Z,5.18
2022-12-06T16:39:28.726Z,5.20
2022-12-06T16:41:56.935Z,5.20
2022-12-06T16:44:26.585Z,5.22
2022-12-06T16:46:54.934Z,5.29
2022-12-06T16:52:12.927Z,5.26
2022-12-06T16:54:41.447Z,5.24
2022-12-06T16:57:10.128Z,5.34
2022-12-06T16:59:40.509Z,5.35
2022-12-06T17:02:26.451Z,5.38
2022-12-06T17:04:55.068Z,5.37
2022-12-06T17:07:23.142Z,5.36
2022-12-06T17:09:51.152Z,5.36
2022-12-06T17:12:21.990Z,5.39
2022-12-06T17:14:51.431Z,5.36
2022-12-06T17:17:21.758Z,5.45
2022-12-06T17:19:50.662Z,5.38
2022-12-06T17:22:19.802Z,5.41
2022-12-06T17:24:47.782Z,5.37
2022-12-06T17:27:16.624Z,5.44
2022-12-06T17:29:45.578Z,5.41
2022-12-06T17:32:15.337Z,5.42
2022-12-06T17:34:43.243Z,5.39
2022-12-06T17:37:11.330Z,5.40
2022-12-06T17:39:39.404Z,5.48
2022-12-06T17:42:25.302Z,5.45
2022-12-06T17:44:53.813Z,5.41
2022-12-06T17:47:23.033Z,5.45
2022-12-06T17:49:51.103Z,5.43
2022-12-06T17:52:19.543Z,5.46
2022-12-06T17:54:47.554Z,5.38
2022-12-06T17:57:17.582Z,5.38
2022-12-06T17:59:46.491Z,5.39
2022-12-06T18:02:16.048Z,5.43
2022-12-06T18:04:47.501Z,5.28
2022-12-06T18:07:16.733Z,5.32
2022-12-06T18:09:45.184Z,5.26
2022-12-06T18:12:14.988Z,5.26
2022-12-06T18:14:42.952Z,5.19
2022-12-06T18:17:13.622Z,5.06
2022-12-06T18:19:42.005Z,5.11
2022-12-06T18:22:14.030Z,5.18
2022-12-06T18:24:43.167Z,5.19
2022-12-06T18:27:11.154Z,5.20
2022-12-06T18:29:39.188Z,5.26
2022-12-06T18:32:07.152Z,5.27
2022-12-06T18:34:35.369Z,5.31
2022-12-06T18:37:03.519Z,5.32
2022-12-06T18:39:33.124Z,5.33
2022-12-06T18:42:01.811Z,5.15
2022-12-06T18:44:30.076Z,5.19
2022-12-06T18:46:58.014Z,5.32
2022-12-06T18:49:27.203Z,5.15
2022-12-06T18:51:55.111Z,5.32
2022-12-06T18:54:22.973Z,5.33
2022-12-06T18:56:53.213Z,5.40
2022-12-06T18:59:26.055Z,5.38
2022-12-06T19:01:58.886Z,5.32
2022-12-06T19:04:54.536Z,5.34
2022-12-06T19:07:25.037Z,5.25
2022-12-06T19:09:53.215Z,5.17
2022-12-06T19:12:23.995Z,5.15
2022-12-06T19:14:55.193Z,5.17
2022-12-06T19:17:23.227Z,5.11
2022-12-06T19:19:55.284Z,5.00
2022-12-06T19:23:16.358Z,5.17
2022-12-06T19:25:47.179Z,5.13
2022-12-06T19:28:16.555Z,5.12
2022-12-06T19:30:44.476Z,5.16
2022-12-06T19:33:12.653Z,5.15
2022-12-06T19:35:44.468Z,5.16
2022-12-06T19:38:12.431Z,5.15
2022-12-06T19:40:42.041Z,5.16
2022-12-06T19:43:27.648Z,5.11
2022-12-06T19:45:56.981Z,5.10
2022-12-06T19:48:25.066Z,5.11
2022-12-06T19:50:53.019Z,5.02
2022-12-06T19:53:20.866Z,5.03
2022-12-06T19:55:50.819Z,4.94
2022-12-06T19:58:18.970Z,4.96
2022-12-06T20:00:48.447Z,4.98
2022-12-06T20:03:17.742Z,4.87
2022-12-06T20:05:45.729Z,4.91
2022-12-06T20:08:16.401Z,4.80
2022-12-06T20:10:45.051Z,4.69
2022-12-06T20:13:14.045Z,4.65
2022-12-06T20:15:46.976Z,4.45
2022-12-06T20:18:14.860Z,4.40
2022-12-06T20:20:49.325Z,4.45
2022-12-06T20:23:19.229Z,4.34
2022-12-06T20:25:48.439Z,4.22
2022-12-06T20:28:22.534Z,3.89
2022-12-06T20:30:50.559Z,3.90
2022-12-06T20:33:18.430Z,3.89
2022-12-06T20:35:46.335Z,3.74
2022-12-06T20:38:15.615Z,3.70
2022-12-06T20:40:43.474Z,3.66
2022-12-06T20:43:11.381Z,3.41
2022-12-06T20:45:39.216Z,3.60
2022-12-06T20:48:07.381Z,3.48
2022-12-06T20:50:35.332Z,3.23
2022-12-06T20:53:03.424Z,3.19
2022-12-06T20:55:38.487Z,3.25
2022-12-06T20:58:06.336Z,3.30
2022-12-06T21:00:34.241Z,3.25
2022-12-06T21:03:02.126Z,3.19
2022-12-06T21:05:31.122Z,2.96
2022-12-06T21:07:59.150Z,2.86
2022-12-06T21:10:27.106Z,2.82
2022-12-06T21:12:56.295Z,2.69
2022-12-06T21:15:24.235Z,2.83
2022-12-06T21:17:52.354Z,3.01
2022-12-06T21:20:20.230Z,3.04
2022-12-06T21:22:48.504Z,3.08
2022-12-06T21:25:17.590Z,3.19
2022-12-06T21:27:46.463Z,3.17
2022-12-06T21:30:16.471Z,3.11
2022-12-06T21:32:44.444Z,3.00
2022-12-06T21:35:25.153Z,3.00
2022-12-06T21:37:53.593Z,2.92
2022-12-06T21:40:22.658Z,3.05
2022-12-06T21:42:50.736Z,3.09
2022-12-06T21:45:20.192Z,3.10
2022-12-06T21:47:49.009Z,3.17
2022-12-06T21:50:20.893Z,3.12
2022-12-06T21:52:49.655Z,3.24
2022-12-06T21:55:17.736Z,3.16
2022-12-06T21:57:48.950Z,3.00
2022-12-06T22:00:18.343Z,3.00
2022-12-06T22:02:51.699Z,2.88
2022-12-06T22:05:19.704Z,2.86
2022-12-06T22:07:47.622Z,2.75
2022-12-06T22:10:15.615Z,2.71
2022-12-06T22:12:55.967Z,2.56
2022-12-06T22:15:23.825Z,2.61
2022-12-06T22:17:53.094Z,2.43
2022-12-06T22:20:20.926Z,2.36
2022-12-06T22:22:48.845Z,1.97
2022-12-06T22:25:19.544Z,2.00
2022-12-06T22:27:47.685Z,2.19
2022-12-06T22:30:16.077Z,2.03
2022-12-06T22:32:44.011Z,2.08
2022-12-06T22:35:13.251Z,2.03
2022-12-06T22:37:41.168Z,2.17
2022-12-06T22:40:15.424Z,2.16
2022-12-06T22:42:43.293Z,1.88
2022-12-06T22:45:12.147Z,1.81
2022-12-06T22:47:41.043Z,1.84
2022-12-06T22:50:10.897Z,2.08
2022-12-06T22:52:40.211Z,1.86
2022-12-06T22:55:08.620Z,1.72
2022-12-06T22:57:36.690Z,1.80
2022-12-06T23:00:05.681Z,2.18
2022-12-06T23:02:33.712Z,2.55
2022-12-06T23:05:02.595Z,2.38
2022-12-06T23:07:46.108Z,2.41
2022-12-06T23:10:15.726Z,2.33
2022-12-06T23:12:44.795Z,2.17
2022-12-06T23:15:12.764Z,2.19
2022-12-06T23:17:40.622Z,2.11
2022-12-06T23:20:10.073Z,2.13
2022-12-06T23:22:38.324Z,1.93
2022-12-06T23:25:07.138Z,1.90
2022-12-06T23:27:36.403Z,1.75
2022-12-06T23:30:04.888Z,1.74
2022-12-06T23:32:32.721Z,1.46
2022-12-06T23:35:00.614Z,1.49
2022-12-06T23:37:28.472Z,1.31
2022-12-06T23:39:56.374Z,1.18
2022-12-06T23:42:24.152Z,1.16
2022-12-06T23:44:53.411Z,1.07
2022-12-06T23:47:21.388Z,0.87
2022-12-06T23:49:49.224Z,0.96
2022-12-06T23:52:17.091Z,1.03
2022-12-06T23:54:44.910Z,0.93
2022-12-06T23:57:14.885Z,1.17
2022-12-06T23:59:42.736Z,1.59
